sensor_id;sensor_type;location;lat;lon;timestamp;temperature;humidity
37782;DHT22;23621;50.878;4.584;2023-03-14T00:01:34;18.50;64.60
37782;DHT22;23621;50.878;4.584;2023-03-14T00:04:04;18.40;64.60
37782;DHT22;23621;50.878;4.584;2023-03-14T00:06:31;18.50;64.70
37782;DHT22;23621;50.878;4.584;2023-03-14T00:08:58;18.50;64.80
37782;DHT22;23621;50.878;4.584;2023-03-14T00:11:25;18.50;65.00
37782;DHT22;23621;50.878;4.584;2023-03-14T00:14:11;18.50;65.10
37782;DHT22;23621;50.878;4.584;2023-03-14T00:16:38;18.50;65.30
37782;DHT22;23621;50.878;4.584;2023-03-14T00:19:05;18.40;65.40
37782;DHT22;23621;50.878;4.584;2023-03-14T00:21:35;18.40;65.70
37782;DHT22;23621;50.878;4.584;2023-03-14T00:24:02;18.30;65.90
37782;DHT22;23621;50.878;4.584;2023-03-14T00:26:29;18.30;66.00
37782;DHT22;23621;50.878;4.584;2023-03-14T00:28:56;18.20;66.10
37782;DHT22;23621;50.878;4.584;2023-03-14T00:31:23;18.20;66.40
37782;DHT22;23621;50.878;4.584;2023-03-14T00:34:09;18.10;66.70
37782;DHT22;23621;50.878;4.584;2023-03-14T00:36:36;18.10;66.80
37782;DHT22;23621;50.878;4.584;2023-03-14T00:39:03;18.10;66.80
37782;DHT22;23621;50.878;4.584;2023-03-14T00:41:30;18.00;66.90
37782;DHT22;23621;50.878;4.584;2023-03-14T00:44:15;18.10;66.90
37782;DHT22;23621;50.878;4.584;2023-03-14T00:46:42;18.10;67.10
37782;DHT22;23621;50.878;4.584;2023-03-14T00:49:27;18.00;67.10
37782;DHT22;23621;50.878;4.584;2023-03-14T00:51:54;17.90;67.30
37782;DHT22;23621;50.878;4.584;2023-03-14T00:54:21;17.90;67.40
37782;DHT22;23621;50.878;4.584;2023-03-14T00:56:48;18.00;67.50
37782;DHT22;23621;50.878;4.584;2023-03-14T00:59:16;18.10;68.20
37782;DHT22;23621;50.878;4.584;2023-03-14T01:01:44;18.10;67.40
37782;DHT22;23621;50.878;4.584;2023-03-14T01:04:29;18.00;67.50
37782;DHT22;23621;50.878;4.584;2023-03-14T01:06:58;17.90;67.60
37782;DHT22;23621;50.878;4.584;2023-03-14T01:09:25;17.90;67.50
37782;DHT22;23621;50.878;4.584;2023-03-14T01:11:52;17.80;67.70
37782;DHT22;23621;50.878;4.584;2023-03-14T01:14:19;17.90;67.60
37782;DHT22;23621;50.878;4.584;2023-03-14T01:16:52;18.00;67.60
37782;DHT22;23621;50.878;4.584;2023-03-14T01:19:19;18.00;67.50
37782;DHT22;23621;50.878;4.584;2023-03-14T01:21:47;18.00;67.60
37782;DHT22;23621;50.878;4.584;2023-03-14T01:24:32;17.90;67.50
37782;DHT22;23621;50.878;4.584;2023-03-14T01:26:59;17.90;67.70
37782;DHT22;23621;50.878;4.584;2023-03-14T01:29:44;17.90;67.50
37782;DHT22;23621;50.878;4.584;2023-03-14T01:32:14;17.90;67.80
37782;DHT22;23621;50.878;4.584;2023-03-14T01:34:41;17.90;67.60
37782;DHT22;23621;50.878;4.584;2023-03-14T01:37:09;17.90;67.60
37782;DHT22;23621;50.878;4.584;2023-03-14T01:39:38;17.80;67.70
37782;DHT22;23621;50.878;4.584;2023-03-14T01:42:05;17.80;67.60
37782;DHT22;23621;50.878;4.584;2023-03-14T01:44:53;17.80;67.30
37782;DHT22;23621;50.878;4.584;2023-03-14T01:47:20;17.90;67.50
37782;DHT22;23621;50.878;4.584;2023-03-14T01:50:08;17.80;67.20
37782;DHT22;23621;50.878;4.584;2023-03-14T01:52:41;17.70;67.30
37782;DHT22;23621;50.878;4.584;2023-03-14T01:55:13;17.70;67.30
37782;DHT22;23621;50.878;4.584;2023-03-14T01:57:44;17.60;67.10
37782;DHT22;23621;50.878;4.584;2023-03-14T02:00:18;17.70;67.20
37782;DHT22;23621;50.878;4.584;2023-03-14T02:02:49;17.80;67.20
37782;DHT22;23621;50.878;4.584;2023-03-14T02:05:21;17.60;67.90
37782;DHT22;23621;50.878;4.584;2023-03-14T02:07:52;17.60;68.20
37782;DHT22;23621;50.878;4.584;2023-03-14T02:10:23;17.60;68.90
37782;DHT22;23621;50.878;4.584;2023-03-14T02:12:53;17.50;69.00
37782;DHT22;23621;50.878;4.584;2023-03-14T02:15:22;17.60;69.20
37782;DHT22;23621;50.878;4.584;2023-03-14T02:17:49;17.50;69.60
37782;DHT22;23621;50.878;4.584;2023-03-14T02:22:52;17.50;70.00
37782;DHT22;23621;50.878;4.584;2023-03-14T02:25:38;17.50;70.90
37782;DHT22;23621;50.878;4.584;2023-03-14T02:28:07;17.50;70.40
37782;DHT22;23621;50.878;4.584;2023-03-14T02:30:53;17.50;70.70
37782;DHT22;23621;50.878;4.584;2023-03-14T02:33:21;17.40;70.70
37782;DHT22;23621;50.878;4.584;2023-03-14T02:35:56;17.40;71.10
37782;DHT22;23621;50.878;4.584;2023-03-14T02:41:22;17.50;71.50
37782;DHT22;23621;50.878;4.584;2023-03-14T02:43:49;17.50;71.50
37782;DHT22;23621;50.878;4.584;2023-03-14T02:46:35;17.50;71.40
37782;DHT22;23621;50.878;4.584;2023-03-14T02:49:04;17.60;71.70
37782;DHT22;23621;50.878;4.584;2023-03-14T02:51:34;17.60;71.90
37782;DHT22;23621;50.878;4.584;2023-03-14T02:54:04;17.50;72.10
37782;DHT22;23621;50.878;4.584;2023-03-14T02:56:31;17.40;72.30
37782;DHT22;23621;50.878;4.584;2023-03-14T02:58:58;17.30;72.50
37782;DHT22;23621;50.878;4.584;2023-03-14T03:01:44;17.30;72.90
37782;DHT22;23621;50.878;4.584;2023-03-14T03:04:11;17.20;72.80
37782;DHT22;23621;50.878;4.584;2023-03-14T03:06:47;17.30;73.20
37782;DHT22;23621;50.878;4.584;2023-03-14T03:09:17;17.20;73.30
37782;DHT22;23621;50.878;4.584;2023-03-14T03:11:56;17.30;73.30
37782;DHT22;23621;50.878;4.584;2023-03-14T03:14:23;17.30;73.10
37782;DHT22;23621;50.878;4.584;2023-03-14T03:16:50;17.40;73.00
37782;DHT22;23621;50.878;4.584;2023-03-14T03:19:17;17.50;72.90
37782;DHT22;23621;50.878;4.584;2023-03-14T03:22:02;17.60;72.90
37782;DHT22;23621;50.878;4.584;2023-03-14T03:24:30;17.60;72.70
37782;DHT22;23621;50.878;4.584;2023-03-14T03:27:15;17.70;72.80
37782;DHT22;23621;50.878;4.584;2023-03-14T03:29:42;17.70;72.80
37782;DHT22;23621;50.878;4.584;2023-03-14T03:32:09;17.70;72.80
37782;DHT22;23621;50.878;4.584;2023-03-14T03:34:36;17.80;72.90
37782;DHT22;23621;50.878;4.584;2023-03-14T03:37:03;17.80;72.90
37782;DHT22;23621;50.878;4.584;2023-03-14T03:39:30;17.70;73.00
37782;DHT22;23621;50.878;4.584;2023-03-14T03:41:57;17.70;73.10
37782;DHT22;23621;50.878;4.584;2023-03-14T03:44:23;17.70;73.10
37782;DHT22;23621;50.878;4.584;2023-03-14T03:47:09;17.70;73.40
37782;DHT22;23621;50.878;4.584;2023-03-14T03:49:36;17.60;73.40
37782;DHT22;23621;50.878;4.584;2023-03-14T03:52:12;17.60;73.50
37782;DHT22;23621;50.878;4.584;2023-03-14T03:54:39;17.50;74.10
37782;DHT22;23621;50.878;4.584;2023-03-14T03:57:06;17.40;74.20
37782;DHT22;23621;50.878;4.584;2023-03-14T03:59:33;17.40;74.20
37782;DHT22;23621;50.878;4.584;2023-03-14T04:02:19;17.30;74.40
37782;DHT22;23621;50.878;4.584;2023-03-14T04:04:47;17.20;74.70
37782;DHT22;23621;50.878;4.584;2023-03-14T04:07:14;17.20;74.60
37782;DHT22;23621;50.878;4.584;2023-03-14T04:09:41;17.20;74.90
37782;DHT22;23621;50.878;4.584;2023-03-14T04:12:08;17.20;74.90
37782;DHT22;23621;50.878;4.584;2023-03-14T04:14:38;17.20;74.90
37782;DHT22;23621;50.878;4.584;2023-03-14T04:17:05;17.00;75.10
37782;DHT22;23621;50.878;4.584;2023-03-14T04:19:32;17.00;75.30
37782;DHT22;23621;50.878;4.584;2023-03-14T04:21:59;17.10;75.30
37782;DHT22;23621;50.878;4.584;2023-03-14T04:24:26;17.10;75.20
37782;DHT22;23621;50.878;4.584;2023-03-14T04:27:11;17.10;75.30
37782;DHT22;23621;50.878;4.584;2023-03-14T04:29:38;17.00;75.40
37782;DHT22;23621;50.878;4.584;2023-03-14T04:32:24;17.10;75.40
37782;DHT22;23621;50.878;4.584;2023-03-14T04:34:52;17.10;75.50
37782;DHT22;23621;50.878;4.584;2023-03-14T04:37:19;17.00;75.80
37782;DHT22;23621;50.878;4.584;2023-03-14T04:39:46;17.00;76.50
37782;DHT22;23621;50.878;4.584;2023-03-14T04:42:13;17.00;75.90
37782;DHT22;23621;50.878;4.584;2023-03-14T04:44:58;17.00;75.70
37782;DHT22;23621;50.878;4.584;2023-03-14T04:47:26;16.70;76.60
37782;DHT22;23621;50.878;4.584;2023-03-14T04:49:53;16.90;76.40
37782;DHT22;23621;50.878;4.584;2023-03-14T04:52:20;16.90;76.20
37782;DHT22;23621;50.878;4.584;2023-03-14T04:54:47;17.00;76.20
37782;DHT22;23621;50.878;4.584;2023-03-14T04:57:17;17.00;76.10
37782;DHT22;23621;50.878;4.584;2023-03-14T04:59:59;17.00;76.00
37782;DHT22;23621;50.878;4.584;2023-03-14T05:02:26;17.10;76.20
37782;DHT22;23621;50.878;4.584;2023-03-14T05:04:53;17.00;76.30
37782;DHT22;23621;50.878;4.584;2023-03-14T05:07:20;17.10;76.30
37782;DHT22;23621;50.878;4.584;2023-03-14T05:09:47;17.10;76.30
37782;DHT22;23621;50.878;4.584;2023-03-14T05:12:14;17.10;76.20
37782;DHT22;23621;50.878;4.584;2023-03-14T05:14:47;17.20;76.10
37782;DHT22;23621;50.878;4.584;2023-03-14T05:17:14;17.30;76.00
37782;DHT22;23621;50.878;4.584;2023-03-14T05:20:00;17.30;75.80
37782;DHT22;23621;50.878;4.584;2023-03-14T05:22:27;17.30;75.70
37782;DHT22;23621;50.878;4.584;2023-03-14T05:24:57;17.40;75.60
37782;DHT22;23621;50.878;4.584;2023-03-14T05:27:25;17.40;75.60
37782;DHT22;23621;50.878;4.584;2023-03-14T05:29:52;17.40;75.60
37782;DHT22;23621;50.878;4.584;2023-03-14T05:32:20;17.30;75.60
37782;DHT22;23621;50.878;4.584;2023-03-14T05:34:47;17.30;75.90
37782;DHT22;23621;50.878;4.584;2023-03-14T05:37:14;17.30;75.90
37782;DHT22;23621;50.878;4.584;2023-03-14T05:39:41;17.30;76.10
37782;DHT22;23621;50.878;4.584;2023-03-14T05:42:08;17.30;76.00
37782;DHT22;23621;50.878;4.584;2023-03-14T05:44:54;17.40;76.20
37782;DHT22;23621;50.878;4.584;2023-03-14T05:47:21;17.40;76.40
37782;DHT22;23621;50.878;4.584;2023-03-14T05:50:04;17.40;76.30
37782;DHT22;23621;50.878;4.584;2023-03-14T05:52:31;17.40;76.40
37782;DHT22;23621;50.878;4.584;2023-03-14T05:54:58;17.40;76.30
37782;DHT22;23621;50.878;4.584;2023-03-14T05:57:25;17.40;76.30
37782;DHT22;23621;50.878;4.584;2023-03-14T05:59:52;17.40;76.30
37782;DHT22;23621;50.878;4.584;2023-03-14T06:02:19;17.40;76.40
37782;DHT22;23621;50.878;4.584;2023-03-14T06:04:47;17.30;76.40
37782;DHT22;23621;50.878;4.584;2023-03-14T06:07:14;17.30;76.60
37782;DHT22;23621;50.878;4.584;2023-03-14T06:09:41;17.20;76.70
37782;DHT22;23621;50.878;4.584;2023-03-14T06:12:27;17.20;76.70
37782;DHT22;23621;50.878;4.584;2023-03-14T06:14:55;17.20;76.80
37782;DHT22;23621;50.878;4.584;2023-03-14T06:17:40;17.20;76.80
37782;DHT22;23621;50.878;4.584;2023-03-14T06:20:09;17.20;76.90
37782;DHT22;23621;50.878;4.584;2023-03-14T06:22:36;17.20;76.90
37782;DHT22;23621;50.878;4.584;2023-03-14T06:25:05;17.20;77.00
37782;DHT22;23621;50.878;4.584;2023-03-14T06:27:33;17.20;76.80
37782;DHT22;23621;50.878;4.584;2023-03-14T06:30:03;17.30;76.80
37782;DHT22;23621;50.878;4.584;2023-03-14T06:32:31;17.30;76.90
37782;DHT22;23621;50.878;4.584;2023-03-14T06:35:01;17.20;77.00
37782;DHT22;23621;50.878;4.584;2023-03-14T06:37:28;17.20;77.20
37782;DHT22;23621;50.878;4.584;2023-03-14T06:40:02;17.20;77.20
37782;DHT22;23621;50.878;4.584;2023-03-14T06:42:29;17.20;77.30
37782;DHT22;23621;50.878;4.584;2023-03-14T06:44:56;17.20;77.20
37782;DHT22;23621;50.878;4.584;2023-03-14T06:47:23;17.30;77.10
37782;DHT22;23621;50.878;4.584;2023-03-14T06:50:09;17.40;77.00
37782;DHT22;23621;50.878;4.584;2023-03-14T06:52:37;17.40;77.00
37782;DHT22;23621;50.878;4.584;2023-03-14T06:55:26;17.30;77.00
37782;DHT22;23621;50.878;4.584;2023-03-14T06:57:53;17.30;77.00
37782;DHT22;23621;50.878;4.584;2023-03-14T07:00:29;17.30;77.00
37782;DHT22;23621;50.878;4.584;2023-03-14T07:02:56;17.30;77.50
37782;DHT22;23621;50.878;4.584;2023-03-14T07:05:23;16.80;76.10
37782;DHT22;23621;50.878;4.584;2023-03-14T07:07:50;16.40;74.20
37782;DHT22;23621;50.878;4.584;2023-03-14T07:10:18;16.40;74.70
37782;DHT22;23621;50.878;4.584;2023-03-14T07:12:45;16.10;72.80
37782;DHT22;23621;50.878;4.584;2023-03-14T07:15:12;15.90;73.50
37782;DHT22;23621;50.878;4.584;2023-03-14T07:17:49;15.90;73.50
37782;DHT22;23621;50.878;4.584;2023-03-14T07:20:17;15.80;72.90
37782;DHT22;23621;50.878;4.584;2023-03-14T07:22:46;15.80;73.10
37782;DHT22;23621;50.878;4.584;2023-03-14T07:25:13;15.80;73.00
37782;DHT22;23621;50.878;4.584;2023-03-14T07:27:43;15.50;72.80
37782;DHT22;23621;50.878;4.584;2023-03-14T07:30:11;15.40;72.80
37782;DHT22;23621;50.878;4.584;2023-03-14T07:32:38;15.30;72.60
37782;DHT22;23621;50.878;4.584;2023-03-14T07:35:06;15.20;72.60
37782;DHT22;23621;50.878;4.584;2023-03-14T07:37:33;14.90;73.40
37782;DHT22;23621;50.878;4.584;2023-03-14T07:40:00;14.90;73.40
37782;DHT22;23621;50.878;4.584;2023-03-14T07:42:27;14.90;73.40
37782;DHT22;23621;50.878;4.584;2023-03-14T07:45:03;15.00;73.20
37782;DHT22;23621;50.878;4.584;2023-03-14T07:47:30;15.00;73.10
37782;DHT22;23621;50.878;4.584;2023-03-14T07:49:57;15.00;73.10
37782;DHT22;23621;50.878;4.584;2023-03-14T07:52:27;14.90;72.90
37782;DHT22;23621;50.878;4.584;2023-03-14T07:54:54;14.90;73.40
37782;DHT22;23621;50.878;4.584;2023-03-14T07:57:21;14.80;73.40
37782;DHT22;23621;50.878;4.584;2023-03-14T07:59:48;14.80;73.70
37782;DHT22;23621;50.878;4.584;2023-03-14T08:02:18;14.80;73.40
37782;DHT22;23621;50.878;4.584;2023-03-14T08:05:08;14.90;73.30
37782;DHT22;23621;50.878;4.584;2023-03-14T08:07:36;15.10;73.20
37782;DHT22;23621;50.878;4.584;2023-03-14T08:10:21;15.20;73.10
37782;DHT22;23621;50.878;4.584;2023-03-14T08:12:50;15.00;73.10
37782;DHT22;23621;50.878;4.584;2023-03-14T08:15:17;14.90;73.30
37782;DHT22;23621;50.878;4.584;2023-03-14T08:17:45;14.60;73.50
37782;DHT22;23621;50.878;4.584;2023-03-14T08:20:15;14.60;73.80
37782;DHT22;23621;50.878;4.584;2023-03-14T08:23:01;14.50;74.00
37782;DHT22;23621;50.878;4.584;2023-03-14T08:25:28;14.30;74.40
37782;DHT22;23621;50.878;4.584;2023-03-14T08:27:56;14.30;74.50
37782;DHT22;23621;50.878;4.584;2023-03-14T08:30:23;14.40;74.40
37782;DHT22;23621;50.878;4.584;2023-03-14T08:32:53;14.40;74.20
37782;DHT22;23621;50.878;4.584;2023-03-14T08:35:20;14.40;74.30
37782;DHT22;23621;50.878;4.584;2023-03-14T08:37:50;14.40;74.00
37782;DHT22;23621;50.878;4.584;2023-03-14T08:40:18;14.40;74.10
37782;DHT22;23621;50.878;4.584;2023-03-14T08:42:45;14.40;74.10
37782;DHT22;23621;50.878;4.584;2023-03-14T08:45:14;14.30;74.40
37782;DHT22;23621;50.878;4.584;2023-03-14T08:48:00;14.30;74.50
37782;DHT22;23621;50.878;4.584;2023-03-14T08:50:27;14.10;74.90
37782;DHT22;23621;50.878;4.584;2023-03-14T08:53:12;13.80;75.70
37782;DHT22;23621;50.878;4.584;2023-03-14T08:55:39;13.90;75.70
37782;DHT22;23621;50.878;4.584;2023-03-14T08:58:06;13.90;75.30
37782;DHT22;23621;50.878;4.584;2023-03-14T09:00:33;14.00;75.30
37782;DHT22;23621;50.878;4.584;2023-03-14T09:03:00;14.20;74.70
37782;DHT22;23621;50.878;4.584;2023-03-14T09:05:27;14.10;74.20
37782;DHT22;23621;50.878;4.584;2023-03-14T09:07:56;14.10;73.50
37782;DHT22;23621;50.878;4.584;2023-03-14T09:10:36;14.00;73.40
37782;DHT22;23621;50.878;4.584;2023-03-14T09:13:03;14.10;73.70
37782;DHT22;23621;50.878;4.584;2023-03-14T09:15:30;14.20;73.50
37782;DHT22;23621;50.878;4.584;2023-03-14T09:17:57;14.00;73.60
37782;DHT22;23621;50.878;4.584;2023-03-14T09:20:24;14.10;73.30
37782;DHT22;23621;50.878;4.584;2023-03-14T09:23:00;14.10;73.30
37782;DHT22;23621;50.878;4.584;2023-03-14T09:25:27;14.10;73.40
37782;DHT22;23621;50.878;4.584;2023-03-14T09:27:54;14.00;72.90
37782;DHT22;23621;50.878;4.584;2023-03-14T09:30:21;13.90;72.70
37782;DHT22;23621;50.878;4.584;2023-03-14T09:33:07;13.90;72.40
37782;DHT22;23621;50.878;4.584;2023-03-14T09:35:34;13.70;73.20
37782;DHT22;23621;50.878;4.584;2023-03-14T09:38:19;13.60;73.40
37782;DHT22;23621;50.878;4.584;2023-03-14T09:40:48;13.70;73.50
37782;DHT22;23621;50.878;4.584;2023-03-14T09:43:15;13.60;73.30
37782;DHT22;23621;50.878;4.584;2023-03-14T09:45:44;13.70;73.70
37782;DHT22;23621;50.878;4.584;2023-03-14T09:48:20;13.70;73.30
37782;DHT22;23621;50.878;4.584;2023-03-14T09:50:54;13.60;73.70
37782;DHT22;23621;50.878;4.584;2023-03-14T09:53:28;13.50;73.40
37782;DHT22;23621;50.878;4.584;2023-03-14T09:55:58;13.50;73.40
37782;DHT22;23621;50.878;4.584;2023-03-14T09:58:26;13.60;73.10
37782;DHT22;23621;50.878;4.584;2023-03-14T10:00:55;13.80;73.20
37782;DHT22;23621;50.878;4.584;2023-03-14T10:03:32;13.90;73.00
37782;DHT22;23621;50.878;4.584;2023-03-14T10:06:00;14.00;72.80
37782;DHT22;23621;50.878;4.584;2023-03-14T10:08:27;13.90;72.40
37782;DHT22;23621;50.878;4.584;2023-03-14T10:10:54;13.90;72.50
37782;DHT22;23621;50.878;4.584;2023-03-14T10:13:27;13.90;72.80
37782;DHT22;23621;50.878;4.584;2023-03-14T10:16:03;13.80;72.60
37782;DHT22;23621;50.878;4.584;2023-03-14T10:18:31;13.70;72.30
37782;DHT22;23621;50.878;4.584;2023-03-14T10:21:29;13.60;72.30
37782;DHT22;23621;50.878;4.584;2023-03-14T10:24:26;13.60;72.50
37782;DHT22;23621;50.878;4.584;2023-03-14T10:26:55;13.40;72.70
37782;DHT22;23621;50.878;4.584;2023-03-14T10:29:24;13.50;72.80
37782;DHT22;23621;50.878;4.584;2023-03-14T10:31:54;13.50;72.50
37782;DHT22;23621;50.878;4.584;2023-03-14T10:34:39;13.40;72.90
37782;DHT22;23621;50.878;4.584;2023-03-14T10:37:16;13.40;72.80
37782;DHT22;23621;50.878;4.584;2023-03-14T10:39:53;13.50;72.60
37782;DHT22;23621;50.878;4.584;2023-03-14T10:42:29;13.50;72.20
37782;DHT22;23621;50.878;4.584;2023-03-14T10:45:36;13.60;72.20
37782;DHT22;23621;50.878;4.584;2023-03-14T10:53:49;13.40;72.40
37782;DHT22;23621;50.878;4.584;2023-03-14T10:56:36;13.30;72.30
37782;DHT22;23621;50.878;4.584;2023-03-14T10:59:07;13.30;72.30
37782;DHT22;23621;50.878;4.584;2023-03-14T11:02:01;13.50;72.40
37782;DHT22;23621;50.878;4.584;2023-03-14T11:07:30;13.50;72.50
37782;DHT22;23621;50.878;4.584;2023-03-14T11:10:31;13.30;72.60
37782;DHT22;23621;50.878;4.584;2023-03-14T11:16:24;13.00;73.40
37782;DHT22;23621;50.878;4.584;2023-03-14T11:30:36;13.00;72.50
37782;DHT22;23621;50.878;4.584;2023-03-14T11:36:16;13.10;71.80
37782;DHT22;23621;50.878;4.584;2023-03-14T11:38:51;13.10;72.10
37782;DHT22;23621;50.878;4.584;2023-03-14T11:41:30;13.30;72.00
37782;DHT22;23621;50.878;4.584;2023-03-14T11:44:01;13.20;71.60
37782;DHT22;23621;50.878;4.584;2023-03-14T11:46:38;13.10;71.80
37782;DHT22;23621;50.878;4.584;2023-03-14T11:51:47;13.30;72.10
37782;DHT22;23621;50.878;4.584;2023-03-14T11:54:55;13.30;71.80
37782;DHT22;23621;50.878;4.584;2023-03-14T11:57:25;13.50;71.60
37782;DHT22;23621;50.878;4.584;2023-03-14T12:03:10;13.20;71.60
37782;DHT22;23621;50.878;4.584;2023-03-14T12:08:44;13.10;72.00
37782;DHT22;23621;50.878;4.584;2023-03-14T12:14:22;13.30;72.20
37782;DHT22;23621;50.878;4.584;2023-03-14T12:17:06;13.30;72.00
37782;DHT22;23621;50.878;4.584;2023-03-14T12:19:43;13.30;72.00
37782;DHT22;23621;50.878;4.584;2023-03-14T12:22:26;13.50;71.90
37782;DHT22;23621;50.878;4.584;2023-03-14T12:25:18;13.60;72.00
37782;DHT22;23621;50.878;4.584;2023-03-14T12:28:12;13.60;71.50
37782;DHT22;23621;50.878;4.584;2023-03-14T12:30:42;13.60;71.50
37782;DHT22;23621;50.878;4.584;2023-03-14T12:35:49;13.50;71.50
37782;DHT22;23621;50.878;4.584;2023-03-14T12:38:59;13.40;71.20
37782;DHT22;23621;50.878;4.584;2023-03-14T12:41:49;13.20;71.60
37782;DHT22;23621;50.878;4.584;2023-03-14T12:47:47;13.10;71.50
37782;DHT22;23621;50.878;4.584;2023-03-14T12:49:54;13.00;72.00
37782;DHT22;23621;50.878;4.584;2023-03-14T12:55:29;12.90;71.80
37782;DHT22;23621;50.878;4.584;2023-03-14T13:01:02;13.20;72.00
37782;DHT22;23621;50.878;4.584;2023-03-14T13:03:45;13.50;71.80
37782;DHT22;23621;50.878;4.584;2023-03-14T13:06:13;13.60;71.60
37782;DHT22;23621;50.878;4.584;2023-03-14T13:11:58;13.80;71.40
37782;DHT22;23621;50.878;4.584;2023-03-14T13:14:31;13.80;71.40
37782;DHT22;23621;50.878;4.584;2023-03-14T13:17:02;13.90;71.30
37782;DHT22;23621;50.878;4.584;2023-03-14T13:19:55;13.90;71.10
37782;DHT22;23621;50.878;4.584;2023-03-14T13:22:29;13.90;71.20
37782;DHT22;23621;50.878;4.584;2023-03-14T13:25:05;14.00;71.40
37782;DHT22;23621;50.878;4.584;2023-03-14T13:27:34;14.00;71.40
37782;DHT22;23621;50.878;4.584;2023-03-14T13:30:44;14.00;71.40
37782;DHT22;23621;50.878;4.584;2023-03-14T13:33:29;14.10;71.30
37782;DHT22;23621;50.878;4.584;2023-03-14T13:36:00;14.00;70.90
37782;DHT22;23621;50.878;4.584;2023-03-14T13:38:56;14.10;71.10
37782;DHT22;23621;50.878;4.584;2023-03-14T13:41:32;14.10;70.90
37782;DHT22;23621;50.878;4.584;2023-03-14T13:44:05;14.00;70.20
37782;DHT22;23621;50.878;4.584;2023-03-14T13:46:52;14.10;70.70
37782;DHT22;23621;50.878;4.584;2023-03-14T13:49:25;14.20;70.80
37782;DHT22;23621;50.878;4.584;2023-03-14T13:51:53;14.20;70.60
37782;DHT22;23621;50.878;4.584;2023-03-14T13:54:22;14.30;70.50
37782;DHT22;23621;50.878;4.584;2023-03-14T13:57:00;14.40;70.60
37782;DHT22;23621;50.878;4.584;2023-03-14T13:59:29;14.50;70.30
37782;DHT22;23621;50.878;4.584;2023-03-14T14:01:58;14.50;70.00
37782;DHT22;23621;50.878;4.584;2023-03-14T14:04:26;14.60;69.80
37782;DHT22;23621;50.878;4.584;2023-03-14T14:07:00;14.60;69.80
37782;DHT22;23621;50.878;4.584;2023-03-14T14:09:40;14.70;69.60
37782;DHT22;23621;50.878;4.584;2023-03-14T14:17:40;14.80;69.90
37782;DHT22;23621;50.878;4.584;2023-03-14T14:20:26;14.90;70.10
37782;DHT22;23621;50.878;4.584;2023-03-14T14:23:00;14.90;70.10
37782;DHT22;23621;50.878;4.584;2023-03-14T14:25:29;14.90;70.10
37782;DHT22;23621;50.878;4.584;2023-03-14T14:27:56;15.00;70.30
37782;DHT22;23621;50.878;4.584;2023-03-14T14:30:30;15.10;70.30
37782;DHT22;23621;50.878;4.584;2023-03-14T14:33:18;15.20;70.50
37782;DHT22;23621;50.878;4.584;2023-03-14T14:35:56;15.30;70.60
37782;DHT22;23621;50.878;4.584;2023-03-14T14:38:42;15.40;70.10
37782;DHT22;23621;50.878;4.584;2023-03-14T14:41:11;15.30;69.90
37782;DHT22;23621;50.878;4.584;2023-03-14T14:43:58;15.30;70.00
37782;DHT22;23621;50.878;4.584;2023-03-14T14:46:28;15.20;69.80
37782;DHT22;23621;50.878;4.584;2023-03-14T14:49:19;15.10;69.40
37782;DHT22;23621;50.878;4.584;2023-03-14T14:51:50;15.00;68.60
37782;DHT22;23621;50.878;4.584;2023-03-14T14:54:45;15.00;67.60
37782;DHT22;23621;50.878;4.584;2023-03-14T14:57:19;14.80;63.90
37782;DHT22;23621;50.878;4.584;2023-03-14T14:59:48;14.60;61.10
37782;DHT22;23621;50.878;4.584;2023-03-14T15:02:45;14.50;60.70
37782;DHT22;23621;50.878;4.584;2023-03-14T15:05:18;14.30;56.80
37782;DHT22;23621;50.878;4.584;2023-03-14T15:07:46;14.20;58.20
37782;DHT22;23621;50.878;4.584;2023-03-14T15:10:19;14.00;57.50
37782;DHT22;23621;50.878;4.584;2023-03-14T15:12:48;14.00;56.90
37782;DHT22;23621;50.878;4.584;2023-03-14T15:15:17;13.90;55.70
37782;DHT22;23621;50.878;4.584;2023-03-14T15:17:44;13.70;55.60
37782;DHT22;23621;50.878;4.584;2023-03-14T15:20:16;13.70;55.50
37782;DHT22;23621;50.878;4.584;2023-03-14T15:22:45;13.70;53.90
37782;DHT22;23621;50.878;4.584;2023-03-14T15:25:12;13.70;54.00
37782;DHT22;23621;50.878;4.584;2023-03-14T15:27:59;13.70;54.40
37782;DHT22;23621;50.878;4.584;2023-03-14T15:30:26;13.70;53.20
37782;DHT22;23621;50.878;4.584;2023-03-14T15:32:53;13.80;53.70
37782;DHT22;23621;50.878;4.584;2023-03-14T15:35:20;13.80;53.20
37782;DHT22;23621;50.878;4.584;2023-03-14T15:37:47;13.90;53.50
37782;DHT22;23621;50.878;4.584;2023-03-14T15:40:15;14.00;54.20
37782;DHT22;23621;50.878;4.584;2023-03-14T15:42:42;14.00;54.10
37782;DHT22;23621;50.878;4.584;2023-03-14T15:45:09;14.10;54.90
37782;DHT22;23621;50.878;4.584;2023-03-14T15:47:37;14.20;55.40
37782;DHT22;23621;50.878;4.584;2023-03-14T15:50:05;14.30;56.70
37782;DHT22;23621;50.878;4.584;2023-03-14T15:52:32;14.30;56.90
37782;DHT22;23621;50.878;4.584;2023-03-14T15:54:59;14.30;57.30
37782;DHT22;23621;50.878;4.584;2023-03-14T15:57:26;14.30;57.70
37782;DHT22;23621;50.878;4.584;2023-03-14T15:59:54;14.30;56.80
37782;DHT22;23621;50.878;4.584;2023-03-14T16:02:21;14.30;56.70
37782;DHT22;23621;50.878;4.584;2023-03-14T16:04:51;14.30;56.30
37782;DHT22;23621;50.878;4.584;2023-03-14T16:07:18;14.20;56.20
37782;DHT22;23621;50.878;4.584;2023-03-14T16:09:45;14.20;56.50
37782;DHT22;23621;50.878;4.584;2023-03-14T16:12:12;14.20;56.50
37782;DHT22;23621;50.878;4.584;2023-03-14T16:14:39;14.20;55.70
37782;DHT22;23621;50.878;4.584;2023-03-14T16:17:09;14.30;55.30
37782;DHT22;23621;50.878;4.584;2023-03-14T16:19:39;14.20;54.20
37782;DHT22;23621;50.878;4.584;2023-03-14T16:22:06;14.10;53.70
37782;DHT22;23621;50.878;4.584;2023-03-14T16:24:33;14.00;53.90
37782;DHT22;23621;50.878;4.584;2023-03-14T16:27:00;14.00;54.60
37782;DHT22;23621;50.878;4.584;2023-03-14T16:29:29;14.00;55.40
37782;DHT22;23621;50.878;4.584;2023-03-14T16:31:56;14.00;54.50
37782;DHT22;23621;50.878;4.584;2023-03-14T16:34:23;13.90;54.50
37782;DHT22;23621;50.878;4.584;2023-03-14T16:37:09;14.00;54.60
37782;DHT22;23621;50.878;4.584;2023-03-14T16:39:37;13.90;54.80
37782;DHT22;23621;50.878;4.584;2023-03-14T16:42:24;14.00;54.70
37782;DHT22;23621;50.878;4.584;2023-03-14T16:44:51;14.00;54.90
37782;DHT22;23621;50.878;4.584;2023-03-14T16:47:18;13.90;54.30
37782;DHT22;23621;50.878;4.584;2023-03-14T16:49:45;13.80;54.60
37782;DHT22;23621;50.878;4.584;2023-03-14T16:52:12;13.70;54.80
37782;DHT22;23621;50.878;4.584;2023-03-14T16:54:42;13.70;55.00
37782;DHT22;23621;50.878;4.584;2023-03-14T16:57:18;13.70;55.20
37782;DHT22;23621;50.878;4.584;2023-03-14T16:59:45;13.70;55.20
37782;DHT22;23621;50.878;4.584;2023-03-14T17:02:12;13.70;55.60
37782;DHT22;23621;50.878;4.584;2023-03-14T17:04:40;13.70;55.70
37782;DHT22;23621;50.878;4.584;2023-03-14T17:07:26;13.80;55.90